createdAt,value
2017-01-22T00:00:18.381Z,15.34
2017-01-22T00:00:48.419Z,15.33
2017-01-22T00:01:18.451Z,15.33
2017-01-22T00:01:48.485Z,15.33
2017-01-22T00:02:18.519Z,15.33
2017-01-22T00:02:48.561Z,15.32
2017-01-22T00:03:18.592Z,15.32
2017-01-22T00:03:48.631Z,15.31
2017-01-22T00:04:18.663Z,15.28
2017-01-22T00:04:48.696Z,15.28
2017-01-22T00:05:18.736Z,15.28
2017-01-22T00:05:48.768Z,15.27
2017-01-22T00:06:18.807Z,15.25
2017-01-22T00:06:48.841Z,15.24
2017-01-22T00:07:18.879Z,15.25
2017-01-22T00:07:48.911Z,15.24
2017-01-22T00:08:18.944Z,15.23
2017-01-22T00:08:48.977Z,15.23
2017-01-22T00:09:19.017Z,15.23
2017-01-22T00:09:49.056Z,15.22
2017-01-22T00:10:19.088Z,15.2
2017-01-22T00:10:49.122Z,15.2
2017-01-22T00:11:19.160Z,15.19
2017-01-22T00:11:49.193Z,15.18
2017-01-22T00:12:19.226Z,15.17
2017-01-22T00:12:49.265Z,15.17
2017-01-22T00:13:19.298Z,15.15
2017-01-22T00:13:49.335Z,15.14
2017-01-22T00:14:19.381Z,15.14
2017-01-22T00:14:49.406Z,15.13
2017-01-22T00:15:19.440Z,15.13
2017-01-22T00:15:49.475Z,15.12
2017-01-22T00:16:19.510Z,15.12
2017-01-22T00:16:49.545Z,15.12
2017-01-22T00:17:19.577Z,15.11
2017-01-22T00:17:49.614Z,15.1
2017-01-22T00:18:19.650Z,15.1
2017-01-22T00:18:49.685Z,15.09
2017-01-22T00:19:19.892Z,15.08
2017-01-22T00:19:49.756Z,15.07
2017-01-22T00:20:19.792Z,15.07
2017-01-22T00:20:49.828Z,15.05
2017-01-22T00:21:19.866Z,15.04
2017-01-22T00:21:49.900Z,15.04
2017-01-22T00:22:19.933Z,15.05
2017-01-22T00:22:49.966Z,15.05
2017-01-22T00:23:20.002Z,15.04
2017-01-22T00:23:50.039Z,15.03
2017-01-22T00:24:20.082Z,15.01
2017-01-22T00:24:50.108Z,15.02
2017-01-22T00:25:20.141Z,15.02
2017-01-22T00:25:50.177Z,15
2017-01-22T00:26:20.213Z,15
2017-01-22T00:26:50.250Z,14.99
2017-01-22T00:27:20.285Z,15
2017-01-22T00:27:50.319Z,14.98
2017-01-22T00:28:20.355Z,14.98
2017-01-22T00:28:50.390Z,14.97
2017-01-22T00:29:20.424Z,14.98
2017-01-22T00:29:50.460Z,14.97
2017-01-22T00:30:20.503Z,14.96
2017-01-22T00:30:50.536Z,14.96
2017-01-22T00:31:20.571Z,14.96
2017-01-22T00:31:50.602Z,14.95
2017-01-22T00:32:20.639Z,14.96
2017-01-22T00:32:50.675Z,14.94
2017-01-22T00:33:20.706Z,14.95
2017-01-22T00:33:50.743Z,14.95
2017-01-22T00:34:20.778Z,14.94
2017-01-22T00:34:50.812Z,14.94
2017-01-22T00:35:20.848Z,14.93
2017-01-22T00:35:50.886Z,14.91
2017-01-22T00:36:20.919Z,14.92
2017-01-22T00:36:50.953Z,14.91
2017-01-22T00:37:20.988Z,14.89
2017-01-22T00:37:51.023Z,14.9
2017-01-22T00:38:21.061Z,14.9
2017-01-22T00:38:51.096Z,14.89
2017-01-22T00:39:21.128Z,14.89
2017-01-22T00:39:51.163Z,14.89
2017-01-22T00:40:21.199Z,14.89
2017-01-22T00:40:51.235Z,14.91
2017-01-22T00:41:21.269Z,14.89
2017-01-22T00:41:51.303Z,14.89
2017-01-22T00:42:21.339Z,14.88
2017-01-22T00:42:51.376Z,14.86
2017-01-22T00:43:21.416Z,14.85
2017-01-22T00:43:51.442Z,14.85
2017-01-22T00:44:21.493Z,14.83
2017-01-22T00:44:51.515Z,14.84
2017-01-22T00:45:21.550Z,14.82
2017-01-22T00:45:51.588Z,14.82
2017-01-22T00:46:21.641Z,14.81
2017-01-22T00:46:51.659Z,14.81
2017-01-22T00:47:21.692Z,14.83
2017-01-22T00:47:51.726Z,14.81
2017-01-22T00:48:21.765Z,14.8
2017-01-22T00:48:51.795Z,14.8
2017-01-22T00:49:21.832Z,14.79
2017-01-22T00:49:51.865Z,14.78
2017-01-22T00:50:21.902Z,14.79
2017-01-22T00:50:51.936Z,14.77
2017-01-22T00:51:21.975Z,14.78
2017-01-22T00:51:52.008Z,14.75
2017-01-22T00:52:22.040Z,14.74
2017-01-22T00:52:52.076Z,14.76
2017-01-22T00:53:22.114Z,14.75
2017-01-22T00:53:52.147Z,14.76
2017-01-22T00:54:22.194Z,14.75
2017-01-22T00:54:52.226Z,14.75
2017-01-22T00:55:22.252Z,14.74
2017-01-22T00:55:52.287Z,14.73
2017-01-22T00:56:22.425Z,14.71
2017-01-22T00:56:52.360Z,14.74
2017-01-22T00:57:22.402Z,14.73
2017-01-22T00:57:52.435Z,14.72
2017-01-22T00:58:22.463Z,14.7
2017-01-22T00:58:52.498Z,14.69
2017-01-22T00:59:22.541Z,14.69
2017-01-22T00:59:52.566Z,14.67
2017-01-22T01:00:22.604Z,14.66
2017-01-22T01:00:52.638Z,14.64
2017-01-22T01:01:22.677Z,14.64
2017-01-22T01:01:52.709Z,14.63
2017-01-22T01:02:22.743Z,14.62
2017-01-22T01:06:47.340Z,14.55
2017-01-22T07:16:07.967Z,12.01
2017-01-22T07:16:37.998Z,12.04
2017-01-22T07:17:08.032Z,12.12
2017-01-22T07:17:38.067Z,12.24
2017-01-22T07:18:08.100Z,12.31
2017-01-22T07:18:38.136Z,12.36
2017-01-22T07:18:51.810Z,12.34
2017-01-22T07:19:21.820Z,12.4
2017-01-22T07:19:51.853Z,12.36
2017-01-22T07:20:21.889Z,12.3
2017-01-22T07:20:52.040Z,12.23
2017-01-22T07:21:21.959Z,12.17
2017-01-22T07:21:51.992Z,12.13
2017-01-22T07:22:22.024Z,12.07
2017-01-22T07:22:52.063Z,12.02
2017-01-22T07:23:22.093Z,12.01
2017-01-22T07:23:52.130Z,11.98
2017-01-22T07:24:22.163Z,11.95
2017-01-22T07:24:52.195Z,11.91
2017-01-22T07:25:22.233Z,11.9
2017-01-22T07:25:52.269Z,11.87
2017-01-22T07:26:22.298Z,11.83
2017-01-22T07:26:52.339Z,11.83
2017-01-22T07:27:22.373Z,11.79
2017-01-22T07:27:52.427Z,11.78
2017-01-22T07:28:22.436Z,11.76
2017-01-22T07:28:52.472Z,11.75
2017-01-22T07:29:22.505Z,11.73
2017-01-22T07:29:52.540Z,11.7
2017-01-22T07:30:22.573Z,11.71
2017-01-22T07:30:52.611Z,11.69
2017-01-22T07:31:22.652Z,11.7
2017-01-22T07:31:52.677Z,11.73
2017-01-22T07:32:22.711Z,11.68
2017-01-22T07:32:52.743Z,11.64
2017-01-22T07:33:22.780Z,11.66
2017-01-22T07:33:52.816Z,11.63
2017-01-22T07:34:22.848Z,11.63
2017-01-22T07:34:52.883Z,11.62
2017-01-22T07:35:23.091Z,11.6
2017-01-22T07:35:52.954Z,11.58
2017-01-22T07:36:22.982Z,11.58
2017-01-22T07:36:53.017Z,11.59
2017-01-22T07:37:23.054Z,11.55
2017-01-22T07:37:53.101Z,11.53
2017-01-22T07:38:23.120Z,11.57
2017-01-22T07:38:53.154Z,11.54
2017-01-22T07:39:23.191Z,11.51
2017-01-22T07:39:53.227Z,11.52
2017-01-22T07:40:23.269Z,11.51
2017-01-22T07:40:54.004Z,11.49
2017-01-22T07:41:23.325Z,11.48
2017-01-22T07:41:53.361Z,11.49
2017-01-22T07:42:23.400Z,11.47
2017-01-22T07:42:53.455Z,11.48
2017-01-22T07:43:23.491Z,11.47
2017-01-22T07:43:53.505Z,11.43
2017-01-22T07:44:23.744Z,11.42
2017-01-22T07:44:57.365Z,11.4
2017-01-22T07:45:23.742Z,11.38
2017-01-22T07:45:53.914Z,11.37
2017-01-22T07:46:28.538Z,11.39
2017-01-22T07:46:53.700Z,11.37
2017-01-22T07:47:24.978Z,11.4
2017-01-22T07:47:53.770Z,11.4
2017-01-22T07:48:23.804Z,11.38
2017-01-22T07:48:53.873Z,11.38
2017-01-22T07:49:23.881Z,11.38
2017-01-22T07:49:55.254Z,11.41
2017-01-22T07:50:23.939Z,11.38
2017-01-22T07:50:54.248Z,11.39
2017-01-22T07:51:24.008Z,11.36
2017-01-22T07:51:54.042Z,11.37
2017-01-22T07:52:25.095Z,11.35
2017-01-22T07:52:54.254Z,11.34
2017-01-22T07:53:24.144Z,11.32
2017-01-22T07:53:54.182Z,11.33
2017-01-22T07:54:24.215Z,11.32
2017-01-22T07:54:54.248Z,11.3
2017-01-22T07:55:24.290Z,11.26
2017-01-22T07:55:54.315Z,11.27
2017-01-22T07:56:33.092Z,11.26
2017-01-22T07:57:08.605Z,11.22
2017-01-22T07:57:36.322Z,11.23
2017-01-22T07:57:54.715Z,11.24
2017-01-22T07:58:26.983Z,11.25
2017-01-22T07:59:34.811Z,11.25
2017-01-22T08:00:04.625Z,11.23
2017-01-22T08:00:20.631Z,11.24
2017-01-22T08:00:35.279Z,11.24
2017-01-22T08:01:05.857Z,11.2
2017-01-22T08:01:35.190Z,11.16
2017-01-22T08:02:08.719Z,11.16
2017-01-22T08:02:35.252Z,11.14
2017-01-22T08:03:43.539Z,11.09
2017-01-22T08:04:12.494Z,11.09
2017-01-22T08:04:42.529Z,11.1
2017-01-22T08:05:12.565Z,11.1
2017-01-22T08:05:42.600Z,11.07
2017-01-22T11:11:29.628Z,15.51
2017-01-22T11:11:58.837Z,15.51
2017-01-22T11:12:28.855Z,15.47
2017-01-22T11:12:58.895Z,15.4
2017-01-22T11:13:28.956Z,15.36
2017-01-22T11:13:58.983Z,15.31
2017-01-22T11:14:29.023Z,15.27
2017-01-22T11:14:59.029Z,15.23
2017-01-22T11:15:29.090Z,15.22
2017-01-22T11:15:59.411Z,15.19
2017-01-22T11:16:29.225Z,15.17
2017-01-22T11:16:59.175Z,15.15
2017-01-22T11:17:29.348Z,15.15
2017-01-22T11:17:59.443Z,15.14
2017-01-22T11:18:29.359Z,15.13
2017-01-22T11:18:59.310Z,15.13
2017-01-22T11:19:29.372Z,15.13
2017-01-22T11:19:59.378Z,15.12
2017-01-22T11:20:29.428Z,15.12
2017-01-22T11:20:59.614Z,15.09
2017-01-22T11:21:29.482Z,15.09
2017-01-22T11:21:59.521Z,15.08
2017-01-22T11:22:29.585Z,15.06
2017-01-22T11:22:59.590Z,15.06
2017-01-22T11:23:29.807Z,15.07
2017-01-22T11:23:59.767Z,15.07
2017-01-22T11:24:29.712Z,15.06
2017-01-22T11:24:59.748Z,15.05
2017-01-22T11:25:29.819Z,15.05
2017-01-22T11:25:59.820Z,15.06
2017-01-22T11:26:29.888Z,15.04
2017-01-22T11:26:59.875Z,15.04
2017-01-22T11:27:29.904Z,15.05
2017-01-22T11:27:59.981Z,15.03
2017-01-22T11:28:29.978Z,15.04
2017-01-22T11:29:00.043Z,15.05
2017-01-22T11:29:30.265Z,15.05
2017-01-22T11:30:00.081Z,15.05
2017-01-22T11:30:30.142Z,15.05
2017-01-22T11:31:00.377Z,15.05
2017-01-22T11:31:30.342Z,15.02
2017-01-22T11:32:00.217Z,15.03
2017-01-22T11:32:30.268Z,15.03
2017-01-22T11:33:00.292Z,15.03
2017-01-22T11:33:30.322Z,15.03
2017-01-22T11:34:00.357Z,15.03
2017-01-22T11:34:30.392Z,15.03
2017-01-22T11:35:00.425Z,15.03
2017-01-22T11:35:30.465Z,15.03
2017-01-22T11:36:00.541Z,15.03
2017-01-22T11:36:30.530Z,15.02
2017-01-22T11:37:00.564Z,15.02
2017-01-22T11:37:30.606Z,15
2017-01-22T11:38:00.638Z,15
2017-01-22T11:38:30.782Z,15
2017-01-22T11:39:00.761Z,14.99
2017-01-22T11:39:30.741Z,14.99
2017-01-22T11:40:01.209Z,14.99
2017-01-22T11:40:30.816Z,15
2017-01-22T11:41:01.152Z,15
2017-01-22T11:41:30.882Z,15.01
2017-01-22T11:42:00.957Z,15.01
2017-01-22T11:42:30.976Z,15.04
2017-01-22T11:43:00.987Z,15
2017-01-22T11:43:31.111Z,15.01
2017-01-22T11:44:01.103Z,15.03
2017-01-22T11:44:31.092Z,15.02
2017-01-22T11:45:01.127Z,15.01
2017-01-22T11:45:31.348Z,15
2017-01-22T11:46:01.200Z,14.97
2017-01-22T11:46:31.237Z,14.98
2017-01-22T11:47:01.272Z,14.96
2017-01-22T11:47:31.315Z,14.96
2017-01-22T11:48:01.346Z,14.94
2017-01-22T11:48:31.372Z,14.93
2017-01-22T11:49:01.606Z,14.92
2017-01-22T11:49:31.588Z,14.91
2017-01-22T11:50:01.768Z,14.92
2017-01-22T11:50:31.832Z,14.91
2017-01-22T11:51:01.835Z,14.9
2017-01-22T11:51:32.111Z,14.9
2017-01-22T11:52:01.627Z,14.9
2017-01-22T11:52:31.653Z,14.9
2017-01-22T11:53:01.691Z,14.89
2017-01-22T11:53:31.723Z,14.89
2017-01-22T11:54:01.758Z,14.89
2017-01-22T11:54:31.792Z,14.88
2017-01-22T11:55:01.850Z,14.89
2017-01-22T11:55:31.864Z,14.89
2017-01-22T11:56:01.897Z,14.88
2017-01-22T11:56:32.152Z,14.87
2017-01-22T11:57:01.969Z,14.87
2017-01-22T11:57:32.004Z,14.86
2017-01-22T11:58:02.213Z,14.86
2017-01-22T11:58:32.072Z,14.85
2017-01-22T11:59:02.108Z,14.84
2017-01-22T11:59:32.140Z,14.84
2017-01-22T12:00:02.175Z,14.85
2017-01-22T12:00:32.212Z,14.86
2017-01-22T12:01:02.250Z,14.85
2017-01-22T12:01:32.344Z,14.84
2017-01-22T12:02:02.319Z,14.84
2017-01-22T12:02:32.354Z,14.85
2017-01-22T12:03:02.541Z,14.85
2017-01-22T12:03:32.483Z,14.85
2017-01-22T12:04:02.486Z,14.84
2017-01-22T12:04:32.579Z,14.85
2017-01-22T12:05:02.531Z,14.85
2017-01-22T12:05:32.560Z,14.85
2017-01-22T12:06:02.608Z,14.86
2017-01-22T12:06:32.632Z,14.85
2017-01-22T12:07:02.686Z,14.85
2017-01-22T12:07:32.703Z,14.85
2017-01-22T12:08:02.790Z,14.86
2017-01-22T12:08:32.770Z,14.86
2017-01-22T12:09:02.810Z,14.86
2017-01-22T12:09:32.919Z,14.87
2017-01-22T12:10:02.903Z,14.88
2017-01-22T12:10:32.912Z,14.89
2017-01-22T12:11:02.951Z,14.88
2017-01-22T12:11:32.981Z,14.89
2017-01-22T12:12:03.017Z,14.89
2017-01-22T12:12:33.104Z,14.89
2017-01-22T12:13:03.201Z,14.89
2017-01-22T12:13:33.121Z,14.9
2017-01-22T12:14:03.188Z,14.91
2017-01-22T12:14:33.217Z,14.91
2017-01-22T12:15:03.228Z,14.89
2017-01-22T12:15:33.289Z,14.9
2017-01-22T12:16:03.320Z,14.9
2017-01-22T12:16:33.333Z,14.91
2017-01-22T12:17:03.367Z,14.9
2017-01-22T12:17:33.402Z,14.91
2017-01-22T12:18:03.439Z,14.9
2017-01-22T12:18:33.484Z,14.91
2017-01-22T12:19:03.507Z,14.9
2017-01-22T12:19:33.578Z,14.9
2017-01-22T12:20:03.590Z,14.89
2017-01-22T12:20:33.613Z,14.91
2017-01-22T12:21:03.664Z,14.91
2017-01-22T12:21:34.773Z,14.91
2017-01-22T12:22:42.065Z,14.91
2017-01-22T12:23:10.318Z,14.9
2017-01-22T12:23:36.544Z,14.9
2017-01-22T12:24:03.857Z,14.9
2017-01-22T12:24:33.977Z,14.9
2017-01-22T12:25:04.313Z,14.88
2017-01-22T12:25:35.508Z,14.89
2017-01-22T12:26:04.137Z,14.89
2017-01-22T12:26:36.740Z,14.88
2017-01-22T12:27:08.594Z,14.87
2017-01-22T12:27:34.268Z,14.88
2017-01-22T12:28:07.377Z,14.88
2017-01-22T12:28:34.616Z,14.88
2017-01-22T12:29:07.936Z,14.88
2017-01-22T12:29:34.434Z,14.88
2017-01-22T12:30:04.366Z,14.87
2017-01-22T12:30:34.383Z,14.88
2017-01-22T12:31:05.330Z,14.87
2017-01-22T12:31:34.708Z,14.88
2017-01-22T12:32:04.418Z,14.87
2017-01-22T12:32:34.452Z,14.87
2017-01-22T12:33:04.489Z,14.86
2017-01-22T12:33:34.524Z,14.86
2017-01-22T12:34:04.560Z,14.85
2017-01-22T12:34:34.592Z,14.86
2017-01-22T12:35:04.655Z,14.87
2017-01-22T12:35:34.661Z,14.86
2017-01-22T12:36:04.698Z,14.88
2017-01-22T12:36:34.737Z,14.88
2017-01-22T12:37:04.794Z,14.88
2017-01-22T12:37:34.806Z,14.87
2017-01-22T12:38:04.839Z,14.87
2017-01-22T12:38:34.873Z,14.87
2017-01-22T12:39:04.909Z,14.87
2017-01-22T12:39:34.942Z,14.88
2017-01-22T12:40:05.002Z,14.88
2017-01-22T12:40:35.012Z,14.89
2017-01-22T12:41:05.053Z,14.88
2017-01-22T12:41:35.090Z,14.88
2017-01-22T12:42:05.120Z,14.88
2017-01-22T12:42:35.156Z,14.88
2017-01-22T12:43:05.191Z,14.88
2017-01-22T12:43:35.229Z,14.88
2017-01-22T12:44:05.266Z,14.89
2017-01-22T12:44:35.292Z,14.88
2017-01-22T12:45:05.330Z,14.89
2017-01-22T12:45:35.364Z,14.9
2017-01-22T12:46:05.398Z,14.9
2017-01-22T12:46:35.443Z,14.89
2017-01-22T12:47:05.473Z,14.9
2017-01-22T12:47:35.508Z,14.88
2017-01-22T12:48:05.536Z,14.89
2017-01-22T12:48:35.572Z,14.89
2017-01-22T12:49:05.609Z,14.89
2017-01-22T12:49:35.643Z,14.9
2017-01-22T12:50:05.679Z,14.89
2017-01-22T12:50:35.715Z,14.89
2017-01-22T12:51:05.747Z,14.89
2017-01-22T12:51:35.901Z,14.9
2017-01-22T12:52:05.982Z,14.89
2017-01-22T12:52:35.862Z,14.9
2017-01-22T12:53:05.897Z,14.89
2017-01-22T12:53:35.923Z,14.9
2017-01-22T12:54:05.960Z,14.89
2017-01-22T12:54:35.992Z,14.9
2017-01-22T12:55:06.053Z,14.91
2017-01-22T12:55:36.062Z,14.91
2017-01-22T12:56:06.098Z,14.91
2017-01-22T12:56:36.134Z,14.92
2017-01-22T12:57:06.169Z,14.92
2017-01-22T12:57:36.205Z,14.92
2017-01-22T12:58:06.240Z,14.92
2017-01-22T12:58:36.281Z,14.93
2017-01-22T12:59:06.311Z,14.91
2017-01-22T12:59:41.814Z,14.92
2017-01-22T13:00:06.380Z,14.92
2017-01-22T13:00:36.415Z,14.92
2017-01-22T13:01:06.457Z,14.92
2017-01-22T13:01:36.487Z,14.92
2017-01-22T13:02:06.523Z,14.93
2017-01-22T13:02:36.559Z,14.93
2017-01-22T13:03:06.602Z,14.93
2017-01-22T13:03:36.624Z,14.93
2017-01-22T13:04:06.659Z,14.91
2017-01-22T13:04:36.696Z,14.91
2017-01-22T13:05:06.731Z,14.93
2017-01-22T13:05:36.765Z,14.95
2017-01-22T13:06:06.798Z,14.97
2017-01-22T13:06:36.837Z,14.98
2017-01-22T13:07:17.145Z,15.01
2017-01-22T13:07:37.520Z,15.03
2017-01-22T13:08:07.495Z,15.05
2017-01-22T13:08:37.043Z,15.07
2017-01-22T13:09:08.088Z,15.1
2017-01-22T13:09:37.044Z,15.09
2017-01-22T13:10:07.082Z,15.05
2017-01-22T13:10:37.118Z,15.05
2017-01-22T13:11:07.147Z,15.03
2017-01-22T13:11:37.199Z,15.02
2017-01-22T13:12:15.937Z,15.02
2017-01-22T13:12:37.255Z,15.01
2017-01-22T13:13:07.290Z,15.02
2017-01-22T13:13:37.332Z,15.01
2017-01-22T13:14:07.359Z,15
2017-01-22T13:14:37.404Z,15
2017-01-22T13:15:07.459Z,15
2017-01-22T13:15:37.478Z,15
2017-01-22T13:16:07.498Z,15
2017-01-22T13:16:37.535Z,14.99
2017-01-22T13:17:07.571Z,14.98
2017-01-22T13:17:37.602Z,14.99
2017-01-22T13:18:07.636Z,15
2017-01-22T13:18:37.675Z,14.99
2017-01-22T13:19:07.711Z,15.01
2017-01-22T13:19:37.744Z,15.04
2017-01-22T13:20:07.790Z,15.03
2017-01-22T13:20:37.813Z,15.01
2017-01-22T13:21:07.851Z,15.02
2017-01-22T13:21:37.903Z,15.01
2017-01-22T13:22:07.924Z,15.01
2017-01-22T13:22:38.265Z,15.03
2017-01-22T13:23:07.992Z,15.03
2017-01-22T13:23:38.026Z,15.05
2017-01-22T13:24:08.059Z,15.05
2017-01-22T13:24:38.099Z,15.06
2017-01-22T13:25:08.144Z,15.08
2017-01-22T13:25:38.492Z,15.07
2017-01-22T13:26:08.210Z,15.12
2017-01-22T13:26:38.238Z,15.14
2017-01-22T13:27:08.909Z,15.19
2017-01-22T13:27:38.588Z,15.32
2017-01-22T13:28:08.665Z,15.41
2017-01-22T13:28:38.385Z,15.48
2017-01-22T13:29:08.508Z,15.46
2017-01-22T13:29:38.444Z,15.43
2017-01-22T13:30:09.052Z,15.37
2017-01-22T13:30:38.537Z,15.35
2017-01-22T13:31:08.581Z,15.37
2017-01-22T13:31:38.585Z,15.35
2017-01-22T13:32:08.680Z,15.32
2017-01-22T13:32:39.113Z,15.32
2017-01-22T13:33:08.903Z,15.32
2017-01-22T13:33:38.728Z,15.31
2017-01-22T13:34:08.762Z,15.29
2017-01-22T13:34:38.794Z,15.29
2017-01-22T13:35:09.022Z,15.27
2017-01-22T13:35:40.146Z,15.25
2017-01-22T13:36:09.193Z,15.23
2017-01-22T13:36:39.119Z,15.21
2017-01-22T13:37:09.295Z,15.2
2017-01-22T13:37:39.009Z,15.19
2017-01-22T13:38:09.039Z,15.16
2017-01-22T13:38:39.404Z,15.13
2017-01-22T13:39:09.471Z,15.13
2017-01-22T13:39:39.149Z,15.11
2017-01-22T13:40:09.317Z,15.09
2017-01-22T13:40:39.320Z,15.08
2017-01-22T13:41:09.513Z,15.06
2017-01-22T13:41:39.491Z,15.06
2017-01-22T13:42:09.526Z,15.03
2017-01-22T13:42:39.357Z,15
2017-01-22T13:43:09.389Z,14.98
2017-01-22T13:43:39.433Z,14.97
2017-01-22T13:44:09.680Z,14.95
2017-01-22T13:44:39.845Z,14.93
2017-01-22T13:45:09.812Z,14.91
2017-01-22T13:45:39.567Z,14.9
2017-01-22T13:46:09.604Z,14.89
2017-01-22T13:46:39.849Z,14.88
2017-01-22T13:47:09.672Z,14.89
2017-01-22T13:47:39.705Z,14.86
2017-01-22T13:48:10.429Z,14.85
2017-01-22T13:48:39.775Z,14.84
2017-01-22T13:49:09.918Z,14.82
2017-01-22T13:49:39.858Z,14.81
2017-01-22T13:50:09.881Z,14.8
2017-01-22T13:50:40.063Z,14.81
2017-01-22T13:51:09.948Z,14.8
2017-01-22T13:51:40.557Z,14.79
2017-01-22T13:52:10.021Z,14.79
2017-01-22T13:52:40.056Z,14.78
2017-01-22T13:53:10.093Z,14.79
2017-01-22T13:53:40.123Z,14.79
2017-01-22T13:54:10.160Z,14.8
2017-01-22T13:54:40.194Z,14.81
2017-01-22T13:55:10.227Z,14.81
2017-01-22T13:55:40.262Z,14.79
2017-01-22T13:56:10.298Z,14.76
2017-01-22T13:56:40.334Z,14.76
2017-01-22T13:57:10.585Z,14.74
2017-01-22T13:57:40.402Z,14.74
2017-01-22T13:58:10.440Z,14.72
2017-01-22T13:58:40.472Z,14.72
2017-01-22T13:59:10.507Z,14.71
2017-01-22T13:59:40.543Z,14.69
2017-01-22T14:00:10.875Z,14.68
2017-01-22T14:00:40.615Z,14.68
2017-01-22T14:01:10.647Z,14.67
2017-01-22T14:01:40.960Z,14.66
2017-01-22T14:02:10.715Z,14.65
2017-01-22T14:02:41.302Z,14.63
2017-01-22T14:03:10.787Z,14.64
2017-01-22T14:03:40.821Z,14.65
2017-01-22T14:04:11.073Z,14.64
2017-01-22T14:04:41.211Z,14.63
2017-01-22T14:05:10.928Z,14.62
2017-01-22T14:05:41.060Z,14.62
2017-01-22T14:06:11.298Z,14.61
2017-01-22T14:06:41.032Z,14.62
2017-01-22T14:07:11.546Z,14.61
2017-01-22T14:07:41.111Z,14.6
2017-01-22T14:08:11.135Z,14.58
2017-01-22T14:08:41.355Z,14.58
2017-01-22T14:09:11.493Z,14.57
2017-01-22T14:09:41.616Z,14.57
2017-01-22T14:10:11.278Z,14.56
2017-01-22T14:10:41.400Z,14.55
2017-01-22T14:11:11.355Z,14.55
2017-01-22T14:11:41.588Z,14.54
2017-01-22T14:12:11.414Z,14.53
2017-01-22T14:12:42.087Z,14.52
2017-01-22T14:13:11.489Z,14.51
2017-01-22T14:13:41.524Z,14.5
2017-01-22T14:14:11.556Z,14.49
2017-01-22T14:14:41.590Z,14.48
2017-01-22T14:15:12.253Z,14.47
2017-01-22T14:15:41.821Z,14.47
2017-01-22T14:16:11.693Z,14.46
2017-01-22T14:16:41.730Z,14.46
2017-01-22T14:17:12.128Z,14.44
2017-01-22T14:17:41.996Z,14.44
2017-01-22T14:18:11.896Z,14.44
2017-01-22T14:18:41.873Z,14.42
2017-01-22T14:19:11.911Z,14.42
2017-01-22T14:19:41.946Z,14.41
2017-01-22T14:20:12.162Z,14.4
2017-01-22T14:20:42.007Z,14.4
2017-01-22T14:21:12.047Z,14.39
2017-01-22T14:21:42.375Z,14.4
2017-01-22T14:22:12.453Z,14.39
2017-01-22T14:22:42.285Z,14.39
2017-01-22T14:23:12.183Z,14.39
2017-01-22T14:23:42.217Z,14.37
2017-01-22T14:24:12.254Z,14.37
2017-01-22T14:24:42.287Z,14.36
2017-01-22T14:25:12.325Z,14.35
2017-01-22T14:25:42.355Z,14.35
2017-01-22T14:26:12.392Z,14.35
2017-01-22T14:26:43.082Z,14.34
2017-01-22T14:27:12.752Z,14.33
2017-01-22T14:27:42.597Z,14.33
2017-01-22T14:28:13.164Z,14.33
2017-01-22T14:28:42.894Z,14.33
2017-01-22T14:29:12.800Z,14.32
2017-01-22T14:29:42.666Z,14.31
2017-01-22T14:30:12.689Z,14.3
2017-01-22T14:30:43.012Z,14.29
2017-01-22T14:31:12.739Z,14.29
2017-01-22T14:31:42.923Z,14.27
2017-01-22T14:32:12.809Z,14.26
2017-01-22T14:32:42.867Z,14.26
2017-01-22T14:33:12.950Z,14.26
2017-01-22T14:33:43.113Z,14.25
2017-01-22T14:34:12.966Z,14.25
2017-01-22T14:34:42.988Z,14.25
2017-01-22T14:35:13.261Z,14.25
2017-01-22T14:35:43.058Z,14.23
2017-01-22T14:36:13.251Z,14.23
2017-01-22T14:36:43.125Z,14.21
2017-01-22T14:37:13.162Z,14.22
2017-01-22T14:37:43.224Z,14.21
2017-01-22T14:38:13.389Z,14.21
2017-01-22T14:38:43.594Z,14.21
2017-01-22T14:39:14.256Z,14.19
2017-01-22T14:39:43.522Z,14.18
2017-01-22T14:40:13.514Z,14.18
2017-01-22T14:40:43.406Z,14.16
2017-01-22T14:41:13.473Z,14.16
2017-01-22T14:41:43.816Z,14.16
2017-01-22T14:42:13.536Z,14.15
2017-01-22T14:42:43.611Z,14.14
2017-01-22T14:43:13.933Z,14.14
2017-01-22T14:43:43.614Z,14.14
2017-01-22T14:44:13.942Z,14.14
2017-01-22T14:44:43.695Z,14.15
2017-01-22T14:45:13.724Z,14.14
2017-01-22T14:45:43.994Z,14.13
2017-01-22T14:46:14.161Z,14.12
2017-01-22T14:46:43.828Z,14.12
2017-01-22T14:47:14.270Z,14.11
2017-01-22T14:47:44.244Z,14.11
2017-01-22T14:48:14.567Z,14.1
2017-01-22T14:48:44.051Z,14.09
2017-01-22T14:49:13.996Z,14.08
2017-01-22T14:49:44.030Z,14.08
2017-01-22T14:50:14.066Z,14.07
2017-01-22T14:50:44.396Z,14.06
2017-01-22T14:51:14.133Z,14.06
2017-01-22T14:51:44.442Z,14.06
2017-01-22T14:52:14.212Z,14.05
2017-01-22T14:52:44.584Z,14.04
2017-01-22T14:53:14.490Z,14.03
2017-01-22T14:53:44.308Z,14.04
2017-01-22T14:54:14.343Z,14.02
2017-01-22T14:54:44.612Z,14.01
2017-01-22T14:55:14.716Z,14.02
2017-01-22T14:55:44.544Z,14.02
2017-01-22T14:56:14.571Z,14.01
2017-01-22T14:56:44.648Z,14
2017-01-22T14:57:14.811Z,14
2017-01-22T14:57:44.588Z,13.99
2017-01-22T14:59:35.214Z,13.98
2017-01-22T14:59:45.241Z,13.97
2017-01-22T15:00:15.344Z,13.98
2017-01-22T15:00:44.980Z,13.97
2017-01-22T15:01:15.100Z,13.97
2017-01-22T15:01:45.154Z,13.96
2017-01-22T15:02:15.110Z,13.96
2017-01-22T15:02:45.325Z,13.95
2017-01-22T15:03:14.968Z,13.95
2017-01-22T15:03:45.331Z,13.94
2017-01-22T15:04:15.035Z,13.93
2017-01-22T15:04:45.094Z,13.94
2017-01-22T15:05:15.106Z,13.91
2017-01-22T15:05:45.153Z,13.9
2017-01-22T15:06:15.179Z,13.9
2017-01-22T15:06:45.211Z,13.89
2017-01-22T15:07:15.245Z,13.89
2017-01-22T15:07:45.279Z,13.88
2017-01-22T15:08:15.318Z,13.88
2017-01-22T15:08:45.352Z,13.87
2017-01-22T15:09:15.383Z,13.87
2017-01-22T15:09:45.424Z,13.87
2017-01-22T15:10:15.458Z,13.89
2017-01-22T15:10:45.489Z,13.87
2017-01-22T15:11:15.804Z,13.87
2017-01-22T15:11:45.973Z,13.86
2017-01-22T15:12:15.595Z,13.84
2017-01-22T15:12:45.626Z,13.84
2017-01-22T15:13:16.133Z,13.85
2017-01-22T15:13:45.728Z,13.84
2017-01-22T15:14:15.730Z,13.83
2017-01-22T15:14:45.763Z,13.81
2017-01-22T15:15:16.008Z,13.81
2017-01-22T15:15:45.833Z,13.81
2017-01-22T15:16:15.873Z,13.81
2017-01-22T15:16:46.297Z,13.8
2017-01-22T15:17:16.440Z,13.79
2017-01-22T15:17:45.977Z,13.79
2017-01-22T15:18:16.009Z,13.78
2017-01-22T15:18:46.045Z,13.77
2017-01-22T15:19:16.437Z,13.76
2017-01-22T15:19:46.360Z,13.75
2017-01-22T15:20:16.150Z,13.73
2017-01-22T15:20:46.182Z,13.73
2017-01-22T15:21:16.224Z,13.73
2017-01-22T15:21:46.254Z,13.73
2017-01-22T15:22:16.560Z,13.72
2017-01-22T15:22:46.359Z,13.71
2017-01-22T15:23:16.356Z,13.7
2017-01-22T15:23:46.404Z,13.69
2017-01-22T15:24:16.427Z,13.68
2017-01-22T15:24:46.784Z,13.68
2017-01-22T15:25:16.496Z,13.68
2017-01-22T15:25:46.530Z,13.69
2017-01-22T15:26:16.564Z,13.68
2017-01-22T15:26:47.022Z,13.67
2017-01-22T15:27:16.859Z,13.67
2017-01-22T15:27:46.670Z,13.66
2017-01-22T15:28:16.702Z,13.66
2017-01-22T15:28:47.129Z,13.66
2017-01-22T15:29:17.117Z,13.64
2017-01-22T15:29:46.924Z,13.64
2017-01-22T15:30:16.842Z,13.63
2017-01-22T15:30:46.876Z,13.63
2017-01-22T15:31:17.143Z,13.62
2017-01-22T15:31:46.944Z,13.61
2017-01-22T15:32:16.982Z,13.6
2017-01-22T15:32:47.014Z,13.61
2017-01-22T15:33:17.053Z,13.59
2017-01-22T15:33:47.842Z,13.59
2017-01-22T15:34:17.119Z,13.58
2017-01-22T15:34:47.155Z,13.58
2017-01-22T15:35:17.186Z,13.58
2017-01-22T15:35:47.226Z,13.58
2017-01-22T15:36:17.632Z,13.58
2017-01-22T15:36:47.848Z,13.57
2017-01-22T15:37:17.326Z,13.57
2017-01-22T15:37:47.362Z,13.57
2017-01-22T15:38:17.821Z,13.56
2017-01-22T15:38:48.150Z,13.56
2017-01-22T15:39:17.466Z,13.55
2017-01-22T15:39:47.500Z,13.55
2017-01-22T15:40:17.805Z,13.55
2017-01-22T15:40:47.952Z,13.54
2017-01-22T15:41:17.605Z,13.55
2017-01-22T15:41:47.787Z,13.55
2017-01-22T15:42:18.062Z,13.54
2017-01-22T15:42:47.941Z,13.54
2017-01-22T15:43:17.743Z,13.54
2017-01-22T15:43:47.775Z,13.54
2017-01-22T15:44:17.813Z,13.55
2017-01-22T15:44:47.847Z,13.54
2017-01-22T15:45:18.205Z,13.54
2017-01-22T15:45:47.920Z,13.55
2017-01-22T15:46:17.957Z,13.55
2017-01-22T15:46:48.094Z,13.54
2017-01-22T15:47:18.375Z,13.55
2017-01-22T15:47:48.055Z,13.55
2017-01-22T15:48:18.094Z,13.55
2017-01-22T15:48:48.415Z,13.55